Wolf Run, OH

3:31 PM EST on December 25, 2014 (GMT -0500)
Sunset Gardens | Change Station
CLOSE
Current Station
Personal Weather Station
Location: Wintersville, OH
Elevation: 1150 ft
Nearby Weather Stations

Elev 1150 ft 40.38 °N, 80.72 °W | Updated 1 minute ago

Overcast
Overcast
38.3 °F
Feels Like 33 °F
N
7.0
Wind Variable Wind from West
Gusts 9.0 mph

Today
High -- | Low -- °F
--% Chance of Precip.
Yesterday
High -- | Low -- °F
Precip. -- in
7:45 AM 5:02 PM
Waxing Crescent, 19% visible
Pressure 30.10 in
Visibility 10.0 miles
Clouds Mostly Cloudy 2700 ft
Overcast 3300 ft
Windchill 33 °F
Dew Point 31 °F
Humidity 75%
Rainfall 0.02 in
Snow Depth Not available.
UV 0 out of 12
Pollen .10 out of 12
Air Quality Not available.
Flu Activity Not available.
METAR KHLG 251953Z 26011G22KT 10SM BKN027 OVC033 04/M02 A3007 RMK AO2 SLP193 T00391017

More Conditions Fewer Conditions

Pressure 30.10 in
Visibility 10.0 miles
Clouds Mostly Cloudy 2700 ft
Overcast 3300 ft
Windchill 33 °F
Dew Point 31 °F
Humidity 75%
Rainfall 0.02 in
Snow Depth Not available.
UV 0 out of 12
Pollen .10 out of 12
Air Quality Not available.
Flu Activity Not available.
METAR KHLG 251953Z 26011G22KT 10SM BKN027 OVC033 04/M02 A3007 RMK AO2 SLP193 T00391017

More Conditions Fewer Conditions

10-Day Weather Forecast

Almanac

Astronomy

Dec. 25, 2014 Rise Set
Actual Time
Civil Twilight
Nautical Twilight
Astronomical Twilight
Moon
Length of Visible Light
Length of Day
Tomorrow will be .
, % of the Moon is Illuminated

Today's Extremes

State Highs State Lows

Community

WunderPhotos

Upload Photos

1,780,392 photos uploaded!

WunderBlogs® & News

Nearby

Air Quality

  Air Quality AQ Index Pollutant
Not available.

Snow Depth

Station Depth Elevation

Earthquake Activity

City Distance Mag. Time & Date
Minimum magnitude displayed is 2.5.

Coastal Water Temperatures

Place Temperature

Nearby Weather Stations